x

Cape Elizabeth- 45nm Nw Of Aberdeen, Wa (46041) Wave Buoy

6:50 - Fri 26th May 2017 All times are PDT. -7 hours from GMT.

  • Sig Wave height 5.6ft
  • Swell Direction
  • Peak Period 10s
  • Average Period 7s
  • Wind
    11mph, 16mph gusts
  • Sea Temp 54°f
  • Aire Temp 56°f
  • Sea Pressure 1016.3mb
  • Cape Elizabeth- 45nm Nw Of Aberdeen, Wa
  • Cape Elizabeth- 45nm Nw Of Aberdeen, Wa

More Historic Weather Station data

Upgrade to MSW Pro to gain access to the past 30 days of data for over 8000 Wavebouys and Weather Stations around the globe.

Join Pro

Comparision Forecast

View Surf forecast
   
vie 05/26 6:50 5.5ft 10s 7s 11 16 mph 1016.3mb 54f 56f
5:50 5.5ft 10s 7s 11 13 mph 1016.4mb 54f 56f
4:50 6ft 9s 7s 11 13 mph 1016.3mb 54f 55f
3:50 6ft 9s 7s 11 13 mph 1016mb 54f 53f
2:50 6ft 8s 7s 13 16 mph 1015.9mb 54f 53f
1:50 5.5ft 9s 7s 11 13 mph 1015.8mb 55f 54f
12:50 6.5ft 9s 7s 9 11 mph 1015.8mb 55f 54f
11:50 6ft 9s 7s 9 11 mph 1015.6mb 54f 54f
10:50 6ft 10s 7s 7 9 mph 1015.4mb 53f 53f
9:50 5.5ft 10s 7s 4 9 mph 1015.4mb 53f 53f
8:50 6.5ft 10s 8s 4 7 mph 1015mb 53f 53f
7:50 6ft 10s 7s 4 4 mph 1014.6mb 52f 52f
6:50 6ft 10s 8s 7 7 mph 1014.1mb 52f 53f
5:50 6ft 10s 7s 9 11 mph 1013.7mb 52f 53f
4:50 6ft 10s 7s 11 11 mph 1013.5mb 52f 53f
3:50 6ft 10s 7s 9 11 mph 1013.3mb 52f 53f
2:50 6.5ft 10s 7s 9 11 mph 1013.1mb 53f 53f
1:50 8ft 10s 8s 9 9 mph 1013.1mb 53f 53f
12:50 7ft 10s 7s 7 9 mph 1012.9mb 52f 53f
jue 05/25 11:50 8.5ft 10s 8s 4 7 mph 1012.7mb 53f 53f
10:50 8ft 10s 8s 4 7 mph 1012.6mb 52f 53f
9:50 7ft 10s 7s 7 9 mph 1012.3mb 52f 53f
8:50 8ft 10s 8s 7 9 mph 1012mb 53f 53f
7:50 8ft 10s 8s 11 13 mph 1011.9mb 53f 54f
6:50 7.5ft 10s 7s 9 11 mph 1011.8mb 53f 54f
5:50 8ft 10s 8s 9 11 mph 1011.9mb 53f 54f
4:50 9.5ft 10s 8s 7 11 mph 1012.3mb 53f 53f
3:50 8.5ft 11s 8s 7 9 mph 1012.5mb 53f 53f
2:50 8.5ft 11s 8s 7 7 mph 1013mb 53f 53f
1:50 10ft 11s 8s 7 9 mph 1012.9mb 53f 53f
12:50 8ft 10s 8s 4 7 mph 1012.9mb 53f 53f
11:50 9ft 11s 8s 2 4 mph 1013.2mb 52f 53f
10:50 8.5ft 11s 8s 2 4 mph 1013.1mb 52f 52f
9:50 10ft 11s 8s 2 4 mph 1013.4mb 52f 52f
8:50 10ft 11s 8s  -  2 mph 1013.4mb 52f 52f
7:50 10ft 11s 8s 2 4 mph 1013.3mb 52f 52f
6:50 10ft 11s 8s 4 9 mph 1013.1mb 51f 52f
5:50 9.5ft 11s 8s 7 9 mph 1013.2mb 51f 51f
4:50 10.5ft 11s 8s 2 4 mph 1013.2mb 51f 51f
3:50 10.5ft 11s 8s 4 4 mph 1013.3mb 51f 51f
2:50 10.5ft 11s 7s 7 9 mph 1013.4mb 51f 51f
1:50 12ft 10s 8s 7 9 mph 1013.5mb 51f 51f
12:50 11.5ft 11s 8s 7 11 mph 1013.9mb 51f 51f
mié 05/24 11:50 11ft 10s 8s 4 9 mph 1014.2mb 51f 51f
10:50 12.5ft 10s 8s 9 11 mph 1014.5mb 51f 52f
9:50 10ft 10s 8s 11 13 mph 1014.5mb 51f 52f
8:50 10ft 10s 8s 13 18 mph 1014.4mb 52f 52f
7:50 10.5ft 10s 8s 18 20 mph 1014.5mb 52f 52f
6:50 9ft 10s 7s 18 20 mph 1014.8mb 52f 53f
5:50 10ft 10s 7s 16 18 mph 1015.6mb 52f 52f
4:50 10ft 10s 7s 16 18 mph 1016mb 52f 53f
3:50 10ft 9s 7s 18 20 mph 1016.4mb 52f 53f
2:50 10ft 9s 7s 16 18 mph 1017mb 52f 53f
1:50 10ft 9s 7s 16 20 mph 1017.3mb 51f 52f
12:50 10ft 9s 7s 20 25 mph 1017.6mb 51f 52f
11:50 10.5ft 8s 7s 16 20 mph 1018.2mb 51f 52f
10:50 9.5ft 8s 7s 20 25 mph 1018.6mb 51f 52f
9:50 10ft 9s 7s 16 20 mph 1019mb 51f 52f
8:50 9.5ft 8s 7s 18 22 mph 1019.2mb 51f 52f
7:50 10ft 8s 7s 20 25 mph 1019.2mb 51f 52f
6:50 9.5ft 9s 7s 20 25 mph 1019.2mb 51f 52f
5:50 10ft 9s 7s 22 27 mph 1019.5mb 52f 51f
4:50 10.5ft 8s 7s 18 25 mph 1019.7mb 52f 52f
3:50 10ft 8s 7s 22 27 mph 1020.1mb 52f 52f
2:50 10ft 9s 7s 22 27 mph 1020.2mb 53f 52f
1:50 11ft 8s 7s 22 29 mph 1020.4mb 53f 52f
12:50 10ft 8s 7s 22 27 mph 1020.9mb 53f 52f
mar 05/23 11:50 10ft 8s 7s 22 29 mph 1020.7mb 54f 52f
10:50 9.5ft 8s 6s 22 29 mph 1021mb 54f 52f
9:50 9.5ft 8s 6s 25 31 mph 1020.6mb 54f 52f
8:50 8.5ft 13s 6s 27 31 mph 1020.3mb 54f 52f
7:50 8.5ft 11s 6s 27 31 mph 1020.2mb 54f 52f
6:50 8ft 12s 6s 27 34 mph 1020.5mb 55f 53f
5:50 8ft 13s 6s 27 31 mph 1020.5mb 55f 53f
4:50 8ft 11s  -  22 29 mph 1020.4mb 55f 54f
3:50 7ft 11s 6s 27 31 mph 1020.6mb 55f 54f
2:50 7ft 13s 6s 22 27 mph 1020.5mb 55f 54f
1:50 7ft 13s 6s 18 22 mph 1020.1mb 56f 54f
12:50 6.5ft 13s 6s 20 25 mph 1019.7mb 56f 53f
11:50 6ft 11s 6s 16 20 mph 1019.5mb 55f 53f
10:50 6ft 11s 6s 20 22 mph 1019.5mb 55f 53f
9:50 6.5ft 11s 6s 18 22 mph 1019.1mb 55f 53f
8:50 7ft 15s 6s 20 25 mph 1018.9mb 54f 53f
7:50 6ft 15s 6s 18 22 mph 1018.8mb 54f 54f
6:50 6ft 14s 6s 18 22 mph 1018.8mb 54f 54f
5:50 7ft 12s 6s 20 25 mph 1018.8mb 55f 54f
4:50 6.5ft 9s 6s 22 27 mph 1018.9mb 55f 54f
3:50 6.5ft 11s 6s 22 25 mph 1018.6mb 56f 53f
2:50 7ft 10s 7s 18 22 mph 1018.6mb 56f 55f